Time;durP1;ratioP1;P1;durP2;ratioP2;P2;SDS_P1;SDS_P2;PMS_P1;PMS_P2;Temp;Humidity;BMP_temperature;BMP_pressure;BME280_temperature;BME280_humidity;BME280_pressure;Samples;Min_cycle;Max_cycle;Signal;HPM_P1;HPM_P2
2022/05/06 00:00:11;;;;;;;23.55;18.08;;;13.00;77.70;;;;;;5052890;28;20027;-67
2022/05/06 00:02:37;;;;;;;17.95;14.27;;;13.00;77.80;;;;;;5054215;28;20029;-66
2022/05/06 00:05:04;;;;;;;19.10;14.55;;;13.00;78.00;;;;;;5052527;28;20032;-66
2022/05/06 00:07:30;;;;;;;20.63;16.40;;;12.90;78.00;;;;;;5054225;28;20060;-67
2022/05/06 00:09:56;;;;;;;21.70;16.52;;;12.80;78.30;;;;;;5055158;28;20077;-67
2022/05/06 00:12:21;;;;;;;20.80;16.05;;;12.70;78.50;;;;;;5052348;28;20538;-66
2022/05/06 00:14:47;;;;;;;24.40;18.58;;;12.70;78.80;;;;;;5048334;28;20028;-67
2022/05/06 00:17:13;;;;;;;23.25;18.13;;;12.60;79.00;;;;;;5053632;28;20693;-66
2022/05/06 00:19:39;;;;;;;23.85;18.25;;;12.60;79.40;;;;;;5052932;28;20420;-66
2022/05/06 00:22:05;;;;;;;26.45;19.48;;;12.50;79.60;;;;;;5049122;28;20114;-67
2022/05/06 00:24:30;;;;;;;25.55;18.77;;;12.50;79.70;;;;;;5048230;28;20148;-66
2022/05/06 00:26:57;;;;;;;23.35;19.02;;;12.50;79.80;;;;;;5050535;28;20453;-67
2022/05/06 00:29:23;;;;;;;26.48;20.17;;;12.50;80.00;;;;;;5051533;28;20021;-66
2022/05/06 00:31:48;;;;;;;26.73;20.10;;;12.40;80.10;;;;;;5050791;28;20032;-66
2022/05/06 00:34:14;;;;;;;25.90;19.65;;;12.40;80.40;;;;;;5053503;28;20047;-67
2022/05/06 00:36:39;;;;;;;25.90;20.58;;;12.30;80.50;;;;;;5050080;28;20021;-66
2022/05/06 00:39:05;;;;;;;26.67;20.02;;;12.30;80.50;;;;;;5054998;28;20044;-66
2022/05/06 00:41:35;;;;;;;27.85;19.90;;;12.30;80.60;;;;;;5046071;28;20029;-66
2022/05/06 00:44:00;;;;;;;27.00;18.95;;;12.30;80.80;;;;;;5049488;28;20029;-66
2022/05/06 00:46:26;;;;;;;27.42;20.70;;;12.30;80.80;;;;;;5052084;28;20557;-67
2022/05/06 00:48:52;;;;;;;25.77;20.05;;;12.20;80.80;;;;;;5053405;28;20025;-67
2022/05/06 00:51:18;;;;;;;28.35;19.40;;;12.20;80.90;;;;;;5063081;28;20381;-66
2022/05/06 00:53:44;;;;;;;25.38;18.60;;;12.20;81.00;;;;;;5050786;28;20013;-66
2022/05/06 00:56:15;;;;;;;24.50;18.63;;;12.20;81.10;;;;;;5051483;28;20017;-67
2022/05/06 00:58:43;;;;;;;25.08;18.05;;;12.20;81.20;;;;;;5054350;28;20032;-67
2022/05/06 01:01:09;;;;;;;27.80;19.70;;;12.20;81.20;;;;;;5054781;28;20021;-66
2022/05/06 01:03:34;;;;;;;26.60;20.13;;;12.20;81.30;;;;;;5067023;28;20029;-67
2022/05/06 01:06:10;;;;;;;28.25;19.30;;;12.20;81.60;;;;;;5051767;28;20067;-67
2022/05/06 01:08:37;;;;;;;24.15;17.45;;;12.20;81.70;;;;;;5057187;28;20025;-67
2022/05/06 01:11:03;;;;;;;23.95;18.13;;;12.10;82.10;;;;;;5051687;28;20021;-66
2022/05/06 01:13:28;;;;;;;23.75;18.05;;;12.00;82.10;;;;;;5054486;28;20025;-67
2022/05/06 01:15:55;;;;;;;26.17;18.48;;;11.90;82.30;;;;;;5055488;28;20020;-67
2022/05/06 01:18:21;;;;;;;25.73;18.25;;;11.90;82.40;;;;;;5055481;28;20041;-66
2022/05/06 01:20:51;;;;;;;25.42;18.00;;;11.90;82.60;;;;;;5054469;28;20452;-67
2022/05/06 01:23:16;;;;;;;25.33;18.00;;;11.90;82.70;;;;;;5058347;28;20047;-67
2022/05/06 01:25:44;;;;;;;27.85;18.35;;;12.00;82.90;;;;;;5053332;28;20481;-66
2022/05/06 01:28:12;;;;;;;30.20;19.52;;;12.00;83.00;;;;;;5067062;28;20021;-67
2022/05/06 01:30:44;;;;;;;24.08;16.65;;;11.90;83.20;;;;;;5062295;28;20025;-67
2022/05/06 01:33:12;;;;;;;22.50;17.30;;;11.90;83.40;;;;;;5059457;28;20147;-67
2022/05/06 01:35:48;;;;;;;21.00;15.02;;;11.80;83.60;;;;;;5053647;28;20029;-67
2022/05/06 01:38:23;;;;;;;19.52;14.00;;;11.70;83.70;;;;;;5051616;28;20025;-66
2022/05/06 01:40:54;;;;;;;15.35;11.73;;;11.60;84.00;;;;;;5052630;28;20032;-67
2022/05/06 01:43:24;;;;;;;15.70;11.52;;;11.60;84.40;;;;;;5058539;28;20085;-66
2022/05/06 01:45:52;;;;;;;16.92;12.48;;;11.50;84.50;;;;;;5052613;28;20078;-67
2022/05/06 01:48:20;;;;;;;20.05;13.15;;;11.50;84.50;;;;;;5056793;28;20039;-66
2022/05/06 01:50:48;;;;;;;23.38;16.52;;;11.40;84.80;;;;;;5056351;28;20025;-66
2022/05/06 01:53:16;;;;;;;25.77;16.30;;;11.40;85.10;;;;;;5053922;28;20021;-67
2022/05/06 01:55:43;;;;;;;24.20;16.10;;;11.30;85.30;;;;;;5077560;28;20449;-67
2022/05/06 01:58:08;;;;;;;25.92;17.63;;;11.30;85.50;;;;;;5053617;28;20025;-66
2022/05/06 02:00:36;;;;;;;23.10;16.77;;;11.30;85.50;;;;;;5067189;28;20017;-66
2022/05/06 02:03:02;;;;;;;24.75;17.65;;;11.30;85.70;;;;;;5054893;28;20542;-66
2022/05/06 02:05:28;;;;;;;27.20;18.05;;;11.30;85.80;;;;;;5055848;28;20106;-67
2022/05/06 02:07:53;;;;;;;25.85;17.70;;;11.30;86.00;;;;;;5053020;28;20032;-67
2022/05/06 02:10:21;;;;;;;22.98;16.88;;;11.30;86.20;;;;;;5063153;28;20060;-66
2022/05/06 02:12:47;;;;;;;24.58;16.42;;;11.20;86.20;;;;;;5056658;28;20024;-67
2022/05/06 02:15:18;;;;;;;21.98;15.75;;;11.20;86.30;;;;;;5053254;28;20022;-66
2022/05/06 02:17:43;;;;;;;23.50;15.38;;;11.30;86.50;;;;;;5072635;28;20107;-67
2022/05/06 02:20:11;;;;;;;23.13;16.27;;;11.30;86.60;;;;;;5053080;28;20140;-66
2022/05/06 02:22:42;;;;;;;23.55;16.35;;;11.30;86.70;;;;;;5050479;28;20035;-67
2022/05/06 02:25:09;;;;;;;22.85;15.90;;;11.30;87.40;;;;;;5053301;28;20021;-66
2022/05/06 02:27:36;;;;;;;24.33;17.02;;;11.30;86.70;;;;;;5053067;28;20029;-66
2022/05/06 02:35:30;;;;;;;27.00;16.50;;;11.40;87.30;;;;;;5056131;28;20036;-67
2022/05/06 02:37:56;;;;;;;27.75;16.75;;;11.40;87.40;;;;;;5054898;28;20009;-67
2022/05/06 02:40:21;;;;;;;28.85;18.33;;;11.50;87.60;;;;;;5050344;28;20025;-67
2022/05/06 02:42:47;;;;;;;32.65;19.10;;;11.50;87.80;;;;;;5053527;28;20056;-66
2022/05/06 02:45:13;;;;;;;29.42;17.73;;;11.50;88.00;;;;;;5058172;28;20051;-67
2022/05/06 02:47:38;;;;;;;30.80;18.38;;;11.50;88.30;;;;;;5049975;28;20032;-66
2022/05/06 02:50:05;;;;;;;33.63;18.98;;;11.60;88.60;;;;;;5049849;28;20103;-67
2022/05/06 02:52:30;;;;;;;34.85;19.58;;;11.60;88.70;;;;;;5052277;28;20061;-66
2022/05/06 02:54:56;;;;;;;35.38;21.35;;;11.60;88.70;;;;;;5058095;28;20440;-67
2022/05/06 02:57:21;;;;;;;38.67;22.15;;;11.70;88.90;;;;;;5049779;28;20437;-67
2022/05/06 02:59:47;;;;;;;35.33;20.90;;;11.60;89.00;;;;;;5048241;28;20029;-67
2022/05/06 03:02:12;;;;;;;37.17;21.80;;;11.70;89.30;;;;;;5052387;28;20055;-67
2022/05/06 03:04:38;;;;;;;31.02;18.55;;;11.60;89.50;;;;;;5052401;28;20029;-67
2022/05/06 03:07:06;;;;;;;33.45;19.40;;;11.70;89.70;;;;;;5065784;28;20016;-66
2022/05/06 03:09:33;;;;;;;37.88;19.58;;;11.60;90.00;;;;;;5052060;28;20023;-67
2022/05/06 03:11:59;;;;;;;29.25;17.42;;;11.60;90.10;;;;;;5054041;28;20029;-67
2022/05/06 03:14:25;;;;;;;31.20;17.83;;;11.60;90.20;;;;;;5050810;28;20072;-67
2022/05/06 03:16:50;;;;;;;32.03;17.63;;;11.60;90.30;;;;;;5052602;28;20071;-67
2022/05/06 03:19:16;;;;;;;28.25;16.38;;;11.60;90.50;;;;;;5051234;28;20440;-67
2022/05/06 03:21:43;;;;;;;30.92;16.17;;;11.60;90.60;;;;;;5056034;28;20393;-66
2022/05/06 03:24:09;;;;;;;31.20;16.25;;;11.60;90.90;;;;;;5049309;28;20342;-67
2022/05/06 03:26:34;;;;;;;32.08;16.45;;;11.60;90.80;;;;;;5052137;28;20789;-67
2022/05/06 03:29:00;;;;;;;31.25;16.27;;;11.60;90.90;;;;;;5064371;28;20032;-67
2022/05/06 03:31:26;;;;;;;31.00;18.08;;;11.60;91.00;;;;;;5051541;28;20025;-67
2022/05/06 03:33:54;;;;;;;32.65;15.63;;;11.60;91.10;;;;;;5051908;28;20033;-66
2022/05/06 03:36:20;;;;;;;29.20;15.98;;;11.50;91.20;;;;;;5051576;28;20116;-67
2022/05/06 03:38:46;;;;;;;33.70;17.67;;;11.60;91.30;;;;;;5049138;28;20079;-66
2022/05/06 03:41:11;;;;;;;36.60;17.85;;;11.50;91.40;;;;;;5061301;28;20029;-67
2022/05/06 03:43:37;;;;;;;33.80;17.45;;;11.60;91.60;;;;;;5051645;28;20039;-67
2022/05/06 03:46:02;;;;;;;40.50;16.98;;;11.50;91.70;;;;;;5048961;28;20373;-66
2022/05/06 03:48:28;;;;;;;36.33;18.75;;;11.50;91.90;;;;;;5054002;28;20104;-66
2022/05/06 03:53:38;;;;;;;33.15;15.68;;;11.50;92.20;;;;;;5052744;28;20453;-67
2022/05/06 03:56:04;;;;;;;25.88;16.17;;;11.40;92.30;;;;;;5057983;28;20520;-67
2022/05/06 03:58:30;;;;;;;30.80;15.38;;;11.40;92.50;;;;;;5062607;28;20029;-68
2022/05/06 04:00:56;;;;;;;27.05;16.35;;;11.40;92.60;;;;;;5052657;28;20060;-68
2022/05/06 04:03:22;;;;;;;27.77;14.55;;;11.40;92.80;;;;;;5050060;28;20071;-68
2022/05/06 04:05:47;;;;;;;30.42;14.43;;;11.40;92.90;;;;;;5050942;28;20586;-68
2022/05/06 04:08:13;;;;;;;29.23;15.80;;;11.40;93.40;;;;;;5047109;28;20032;-69
2022/05/06 04:10:38;;;;;;;33.20;14.55;;;11.40;93.30;;;;;;5060144;28;20119;-68
2022/05/06 04:13:04;;;;;;;28.52;17.80;;;11.30;93.40;;;;;;5051289;28;20389;-68
2022/05/06 04:15:32;;;;;;;25.88;15.73;;;11.30;93.70;;;;;;5053538;28;20049;-68
2022/05/06 04:17:58;;;;;;;30.88;13.80;;;11.30;93.90;;;;;;5051080;28;20021;-67
2022/05/06 04:25:52;;;;;;;22.63;12.65;;;11.30;94.20;;;;;;5062211;28;20511;-68
2022/05/06 04:28:18;;;;;;;21.05;11.48;;;11.20;94.30;;;;;;5053715;28;20037;-68
2022/05/06 04:30:44;;;;;;;21.67;11.88;;;11.20;94.40;;;;;;5050489;28;20467;-68
2022/05/06 04:33:09;;;;;;;18.33;11.00;;;11.20;94.50;;;;;;5050815;28;20068;-68
2022/05/06 04:35:35;;;;;;;17.95;11.63;;;11.10;94.60;;;;;;5050584;28;20048;-68
2022/05/06 04:38:00;;;;;;;15.05;10.50;;;11.10;94.70;;;;;;5057149;28;20021;-68
2022/05/06 04:40:26;;;;;;;14.85;10.50;;;11.10;94.80;;;;;;5054998;28;20036;-68
2022/05/06 04:42:52;;;;;;;14.95;9.50;;;11.10;94.80;;;;;;5053631;28;20476;-68
2022/05/06 04:45:17;;;;;;;15.38;9.63;;;11.10;94.80;;;;;;5047975;28;20029;-68
2022/05/06 04:47:42;;;;;;;14.35;10.23;;;11.10;94.90;;;;;;5052733;28;20025;-68
2022/05/06 04:50:08;;;;;;;16.02;10.18;;;11.10;94.80;;;;;;5050632;28;20043;-68
2022/05/06 04:52:34;;;;;;;16.33;12.13;;;11.10;94.90;;;;;;5050909;28;20025;-66
2022/05/06 04:54:59;;;;;;;15.10;11.00;;;11.10;95.00;;;;;;5047833;28;20036;-66
2022/05/06 04:57:25;;;;;;;13.50;9.30;;;11.10;95.00;;;;;;5053538;28;20017;-66
2022/05/06 04:59:50;;;;;;;19.48;10.43;;;11.10;95.10;;;;;;5047787;28;20431;-66
2022/05/06 05:02:16;;;;;;;15.65;10.00;;;11.10;95.10;;;;;;5048063;28;20480;-66
2022/05/06 05:04:43;;;;;;;16.67;10.57;;;11.10;95.10;;;;;;5047816;28;20083;-65
2022/05/06 05:07:09;;;;;;;17.70;11.05;;;11.10;95.20;;;;;;5056310;28;20025;-65
2022/05/06 05:09:35;;;;;;;15.43;11.55;;;11.10;95.20;;;;;;5047881;28;20051;-66
2022/05/06 05:12:00;;;;;;;16.85;10.80;;;11.00;95.40;;;;;;5055098;28;20036;-66
2022/05/06 05:14:25;;;;;;;17.67;10.98;;;11.00;95.40;;;;;;5057132;28;20703;-66
2022/05/06 05:16:51;;;;;;;19.30;11.75;;;11.00;95.50;;;;;;5053652;28;20100;-66
2022/05/06 05:19:17;;;;;;;16.85;11.25;;;11.00;95.50;;;;;;5051447;28;20428;-66
2022/05/06 05:21:43;;;;;;;16.45;11.68;;;11.00;95.60;;;;;;5051718;28;20457;-65
2022/05/06 05:24:09;;;;;;;19.67;11.98;;;11.00;95.70;;;;;;5051330;28;20022;-66
2022/05/06 05:26:34;;;;;;;16.40;12.05;;;11.00;95.90;;;;;;5050446;28;20021;-66
2022/05/06 05:29:00;;;;;;;20.83;9.60;;;11.00;95.90;;;;;;5051546;28;20025;-66
2022/05/06 05:31:26;;;;;;;14.45;9.63;;;11.10;96.00;;;;;;5051695;28;20162;-66
2022/05/06 05:33:52;;;;;;;17.08;9.65;;;11.10;96.00;;;;;;5051557;28;20530;-66
2022/05/06 05:36:18;;;;;;;17.08;9.10;;;11.10;96.00;;;;;;5051457;28;20430;-66
2022/05/06 05:38:44;;;;;;;18.60;7.78;;;11.10;96.10;;;;;;5067015;28;20138;-66
2022/05/06 05:41:09;;;;;;;13.68;9.10;;;11.10;96.10;;;;;;5051738;28;20228;-65
2022/05/06 05:49:03;;;;;;;16.65;9.25;;;11.10;96.20;;;;;;5055380;28;20044;-66
2022/05/06 05:51:29;;;;;;;19.15;8.52;;;11.10;96.20;;;;;;5054784;28;20028;-66
2022/05/06 05:53:54;;;;;;;15.15;8.57;;;11.20;96.20;;;;;;5054843;28;20021;-65
2022/05/06 05:56:20;;;;;;;11.70;7.57;;;11.20;96.20;;;;;;5055019;28;20393;-66
2022/05/06 05:58:45;;;;;;;16.23;9.13;;;11.20;96.20;;;;;;5054920;28;20465;-65
2022/05/06 06:01:11;;;;;;;16.75;9.20;;;11.30;96.30;;;;;;5054762;28;20029;-65
2022/05/06 06:03:37;;;;;;;13.00;7.88;;;11.30;96.30;;;;;;5054789;28;20024;-65
2022/05/06 06:06:03;;;;;;;12.25;8.20;;;11.20;96.30;;;;;;5054576;28;20025;-65
2022/05/06 06:08:28;;;;;;;11.60;7.38;;;11.30;96.40;;;;;;5053825;28;20037;-65
2022/05/06 06:10:54;;;;;;;11.45;8.40;;;11.30;96.40;;;;;;5053561;28;20504;-65
2022/05/06 06:13:19;;;;;;;12.27;8.00;;;11.40;96.40;;;;;;5054590;28;20385;-65
2022/05/06 06:15:45;;;;;;;12.55;8.45;;;11.40;96.30;;;;;;5054511;28;20028;-66
2022/05/06 06:18:11;;;;;;;11.15;7.93;;;11.50;96.30;;;;;;5054275;28;20052;-66
2022/05/06 06:20:39;;;;;;;14.43;8.32;;;11.50;96.30;;;;;;5054466;28;20040;-65
2022/05/06 06:23:05;;;;;;;18.17;9.10;;;11.50;96.40;;;;;;5054421;28;20033;-66
2022/05/06 06:25:30;;;;;;;16.52;9.02;;;11.50;96.40;;;;;;5069491;28;20028;-65
2022/05/06 06:27:56;;;;;;;16.58;8.95;;;11.50;96.50;;;;;;5054454;28;20439;-65
2022/05/06 06:30:21;;;;;;;12.25;7.75;;;11.50;96.50;;;;;;5054116;28;20489;-66
2022/05/06 06:32:47;;;;;;;11.98;8.20;;;11.50;96.50;;;;;;5054357;28;20029;-66
2022/05/06 06:35:12;;;;;;;18.25;8.25;;;11.60;96.60;;;;;;5054139;28;20032;-65
2022/05/06 06:37:39;;;;;;;13.27;7.50;;;11.60;96.50;;;;;;5054144;28;20031;-66
2022/05/06 06:40:06;;;;;;;11.65;8.68;;;11.70;96.50;;;;;;5054045;28;20035;-66
2022/05/06 06:42:31;;;;;;;11.70;8.07;;;11.70;96.60;;;;;;5069206;28;20024;-65
2022/05/06 06:44:59;;;;;;;12.13;7.78;;;11.70;96.60;;;;;;5051766;28;20033;-66
2022/05/06 06:47:24;;;;;;;10.13;7.22;;;11.80;96.60;;;;;;5049670;28;20028;-66
2022/05/06 06:49:49;;;;;;;15.13;7.95;;;11.80;96.60;;;;;;5052477;28;20399;-66
2022/05/06 06:52:15;;;;;;;15.50;8.98;;;11.80;96.60;;;;;;5052335;28;20381;-66
2022/05/06 06:54:41;;;;;;;14.77;7.50;;;11.80;96.70;;;;;;5052560;28;20128;-65
2022/05/06 06:57:06;;;;;;;15.40;9.27;;;11.90;96.80;;;;;;5052306;28;20021;-65
2022/05/06 06:59:32;;;;;;;14.43;8.98;;;11.90;96.80;;;;;;5051247;28;20044;-65
2022/05/06 07:01:58;;;;;;;15.50;9.20;;;11.90;96.80;;;;;;5051817;28;20032;-66
2022/05/06 07:04:24;;;;;;;14.05;8.90;;;11.90;96.80;;;;;;5051716;28;20532;-66
2022/05/06 07:12:17;;;;;;;14.10;9.73;;;12.00;96.90;;;;;;5051827;28;20036;-66
2022/05/06 07:14:43;;;;;;;16.35;8.60;;;12.00;96.80;;;;;;5051881;28;20025;-66
2022/05/06 07:17:08;;;;;;;14.38;9.43;;;12.10;96.80;;;;;;5051464;28;20028;-65
2022/05/06 07:19:34;;;;;;;14.00;9.75;;;12.20;96.80;;;;;;5060665;28;20040;-65
2022/05/06 07:21:59;;;;;;;17.13;11.02;;;12.20;96.80;;;;;;5052147;28;20021;-65
2022/05/06 07:24:25;;;;;;;18.42;11.80;;;12.30;96.80;;;;;;5051696;28;20028;-65
2022/05/06 07:26:52;;;;;;;14.20;10.13;;;12.30;96.70;;;;;;5051268;28;20043;-66
2022/05/06 07:29:19;;;;;;;16.95;11.70;;;12.40;96.70;;;;;;5051611;28;20020;-66
2022/05/06 07:31:45;;;;;;;20.25;14.27;;;12.40;96.60;;;;;;5051473;28;20048;-65
2022/05/06 07:34:11;;;;;;;19.25;13.55;;;12.50;96.70;;;;;;5051690;28;20036;-65
2022/05/06 07:36:43;;;;;;;17.48;12.77;;;12.50;96.60;;;;;;5051285;28;20017;-65
2022/05/06 07:39:15;;;;;;;16.27;11.98;;;12.60;96.60;;;;;;5051295;28;20045;-65
2022/05/06 07:41:41;;;;;;;12.55;9.38;;;12.60;96.90;;;;;;5051148;28;20029;-66
2022/05/06 07:44:08;;;;;;;12.60;9.45;;;12.60;96.60;;;;;;5052019;28;20585;-65
2022/05/06 07:46:35;;;;;;;14.85;10.70;;;12.70;96.50;;;;;;5052788;28;20057;-65
2022/05/06 07:49:02;;;;;;;15.18;11.32;;;12.80;96.50;;;;;;5052398;28;20032;-65
2022/05/06 07:51:28;;;;;;;15.77;11.95;;;12.80;96.30;;;;;;5052964;28;20085;-65
2022/05/06 07:53:56;;;;;;;16.00;11.43;;;12.90;96.20;;;;;;5052814;28;20028;-65
2022/05/06 07:56:26;;;;;;;14.07;10.18;;;12.90;96.10;;;;;;5052527;28;20021;-65
2022/05/06 07:58:53;;;;;;;14.80;10.60;;;13.00;96.10;;;;;;5067747;28;20052;-66
2022/05/06 08:04:32;;;;;;;12.57;9.65;;;13.10;96.00;;;;;;5052567;28;20091;-65
2022/05/06 08:06:53;;;;;;;13.57;10.93;;;13.30;95.70;;;;;;5052798;28;20040;-66
2022/05/06 08:09:20;;;;;;;11.30;9.20;;;13.30;95.50;;;;;;5065152;28;20104;-65
2022/05/06 08:11:46;;;;;;;9.57;7.72;;;13.40;95.40;;;;;;5072781;28;20029;-65
2022/05/06 08:14:16;;;;;;;9.32;7.57;;;13.50;95.20;;;;;;5056488;28;20100;-66
2022/05/06 08:16:43;;;;;;;11.00;7.85;;;13.70;95.10;;;;;;5051775;28;20431;-65
2022/05/06 08:19:09;;;;;;;10.43;8.02;;;13.70;94.90;;;;;;5051575;28;20041;-65
2022/05/06 08:21:35;;;;;;;10.20;7.95;;;13.80;94.80;;;;;;5052081;28;20060;-66
2022/05/06 08:24:01;;;;;;;10.32;7.75;;;13.90;94.60;;;;;;5067565;28;20112;-65
2022/05/06 08:26:26;;;;;;;9.93;7.57;;;14.00;94.50;;;;;;5051028;28;20112;-65
2022/05/06 08:28:52;;;;;;;8.43;6.65;;;14.10;94.30;;;;;;5051989;28;20056;-66
2022/05/06 08:31:17;;;;;;;8.52;6.63;;;14.10;94.20;;;;;;5067355;28;20033;-66
2022/05/06 08:33:45;;;;;;;8.57;7.22;;;14.30;94.10;;;;;;5052234;28;20028;-66
2022/05/06 08:36:10;;;;;;;7.80;6.35;;;14.40;93.90;;;;;;5051390;28;20101;-65
2022/05/06 08:38:36;;;;;;;9.27;7.50;;;14.50;93.70;;;;;;5051850;28;20128;-65
2022/05/06 08:41:02;;;;;;;8.80;7.20;;;14.50;93.50;;;;;;5051706;28;20048;-65
2022/05/06 08:43:27;;;;;;;9.07;7.38;;;14.60;93.40;;;;;;5051788;28;20375;-66
2022/05/06 08:51:31;;;;;;;9.13;7.32;;;15.10;93.00;;;;;;5051938;28;20032;-66
2022/05/06 08:53:57;;;;;;;7.45;6.20;;;15.20;92.70;;;;;;5051859;28;20021;-65
2022/05/06 08:56:22;;;;;;;7.40;6.43;;;15.20;92.50;;;;;;5051804;28;20071;-65
2022/05/06 08:58:48;;;;;;;8.77;7.43;;;15.30;92.40;;;;;;5051684;28;20033;-65
2022/05/06 09:01:15;;;;;;;9.80;8.23;;;15.40;92.30;;;;;;5067114;28;20109;-65
2022/05/06 09:03:42;;;;;;;8.95;8.02;;;15.60;92.00;;;;;;5051744;28;20029;-65
2022/05/06 09:06:39;;;;;;;7.85;6.85;;;15.80;91.80;;;;;;5050175;28;20189;-66
2022/05/06 09:09:05;;;;;;;8.75;7.30;;;16.00;91.40;;;;;;5048298;28;20159;-65
2022/05/06 09:16:39;;;;;;;11.20;9.38;;;16.20;91.20;;;;;;5050523;28;20027;-65
2022/05/06 09:17:24;;;;;;;10.77;9.27;;;16.30;90.80;;;;;;5050973;28;20483;-65
2022/05/06 09:19:50;;;;;;;9.70;8.57;;;16.30;90.60;;;;;;5051499;28;20515;-66
2022/05/06 09:22:16;;;;;;;9.80;8.80;;;16.30;90.60;;;;;;5053842;28;20485;-65
2022/05/06 09:24:47;;;;;;;10.07;8.88;;;16.30;90.60;;;;;;5053805;28;20035;-65
2022/05/06 09:27:21;;;;;;;11.07;9.57;;;16.40;90.60;;;;;;5052921;28;20024;-66
2022/05/06 09:29:51;;;;;;;9.10;7.93;;;16.60;90.30;;;;;;5053721;28;20017;-66
2022/05/06 09:32:24;;;;;;;9.38;7.38;;;16.70;90.10;;;;;;5053837;28;20480;-66
2022/05/06 09:34:58;;;;;;;10.32;9.07;;;16.70;90.00;;;;;;5055099;28;20021;-66
2022/05/06 09:37:34;;;;;;;10.40;8.50;;;16.70;90.00;;;;;;5055103;28;20028;-66
2022/05/06 09:40:06;;;;;;;12.02;9.30;;;16.80;89.90;;;;;;5055210;28;20017;-66
2022/05/06 09:42:32;;;;;;;9.20;7.82;;;16.80;89.70;;;;;;5054921;28;20017;-66
2022/05/06 09:44:58;;;;;;;10.52;8.95;;;16.80;89.50;;;;;;5054931;28;20101;-65
2022/05/06 09:47:25;;;;;;;9.30;7.95;;;16.80;89.20;;;;;;5054723;28;20096;-65
2022/05/06 09:49:52;;;;;;;9.00;7.82;;;16.90;89.20;;;;;;5054761;28;20063;-66
2022/05/06 09:52:17;;;;;;;8.80;7.20;;;16.80;89.10;;;;;;5054221;28;20025;-66
2022/05/06 09:54:44;;;;;;;7.75;6.95;;;16.80;89.10;;;;;;5053454;28;20039;-65
2022/05/06 09:57:12;;;;;;;9.55;8.23;;;16.80;89.10;;;;;;5053247;28;20090;-66
2022/05/06 09:59:38;;;;;;;7.63;6.80;;;16.90;88.90;;;;;;5053318;28;20473;-65
2022/05/06 10:02:05;;;;;;;10.05;7.50;;;16.90;89.00;;;;;;5052952;28;20024;-66
2022/05/06 10:04:30;;;;;;;9.23;7.50;;;16.90;88.80;;;;;;5053233;28;20031;-66
2022/05/06 10:07:00;;;;;;;8.32;7.45;;;16.90;88.50;;;;;;5058778;28;20021;-65
2022/05/06 10:09:27;;;;;;;9.48;7.57;;;16.90;88.40;;;;;;5052741;28;20021;-66
2022/05/06 10:11:55;;;;;;;8.82;7.57;;;17.00;88.40;;;;;;5052939;28;20069;-66
2022/05/06 10:14:22;;;;;;;9.43;8.02;;;17.00;88.00;;;;;;5052718;28;20481;-66
2022/05/06 10:16:48;;;;;;;8.02;6.95;;;17.10;87.70;;;;;;5050335;28;20590;-65
2022/05/06 10:19:26;;;;;;;7.00;6.30;;;17.20;87.40;;;;;;5051853;28;20047;-65
2022/05/06 10:21:52;;;;;;;8.65;6.25;;;17.20;86.80;;;;;;5054330;28;20040;-66
2022/05/06 10:24:18;;;;;;;6.97;5.80;;;17.40;86.30;;;;;;5054237;28;20033;-66
2022/05/06 10:26:51;;;;;;;6.88;5.22;;;17.40;85.70;;;;;;5053908;28;20151;-66
2022/05/06 10:32:26;;;;;;;4.75;4.25;;;17.60;84.20;;;;;;5054249;28;20079;-66
2022/05/06 10:34:55;;;;;;;5.40;4.83;;;17.70;83.00;;;;;;5054111;28;20021;-65
2022/05/06 10:37:22;;;;;;;4.15;3.67;;;17.90;82.00;;;;;;5053856;28;20029;-66
2022/05/06 10:39:48;;;;;;;5.30;3.78;;;17.90;81.30;;;;;;5066616;28;20048;-66
2022/05/06 10:42:16;;;;;;;5.72;4.93;;;18.00;81.00;;;;;;5051605;28;20101;-66
2022/05/06 10:44:48;;;;;;;6.03;4.63;;;18.20;80.30;;;;;;5052142;28;20108;-66
2022/05/06 10:47:16;;;;;;;4.63;4.13;;;18.30;79.60;;;;;;5053029;28;20493;-65
2022/05/06 10:49:51;;;;;;;7.28;5.78;;;18.30;79.00;;;;;;5053536;28;20029;-66
2022/05/06 10:52:20;;;;;;;4.97;4.35;;;18.30;76.40;;;;;;5053873;28;20392;-66
2022/05/06 10:54:47;;;;;;;3.20;2.72;;;18.40;76.70;;;;;;5053773;28;20024;-66
2022/05/06 10:57:13;;;;;;;2.83;2.33;;;18.60;76.40;;;;;;5053921;28;20037;-66
2022/05/06 10:59:49;;;;;;;3.78;2.70;;;18.70;75.50;;;;;;5053504;28;20029;-66
2022/05/06 11:02:16;;;;;;;5.03;4.20;;;19.00;74.80;;;;;;5068945;28;20028;-66
2022/05/06 11:04:49;;;;;;;4.18;2.90;;;19.00;74.30;;;;;;5053614;28;20025;-66
2022/05/06 11:07:14;;;;;;;5.53;4.90;;;19.10;74.10;;;;;;5053517;28;20028;-66
2022/05/06 11:09:40;;;;;;;4.78;4.35;;;19.20;71.50;;;;;;5053449;28;20025;-66
2022/05/06 11:12:06;;;;;;;5.43;4.93;;;19.30;71.50;;;;;;5053453;28;20113;-66
2022/05/06 11:14:32;;;;;;;7.38;6.22;;;19.50;71.40;;;;;;5053151;28;20032;-66
2022/05/06 11:17:17;;;;;;;6.55;5.55;;;19.60;70.10;;;;;;5052092;28;20029;-66
2022/05/06 11:19:42;;;;;;;6.40;4.60;;;19.80;70.00;;;;;;5049817;28;20045;-66
2022/05/06 11:22:09;;;;;;;4.35;3.50;;;19.90;70.00;;;;;;5049162;28;20037;-66
2022/05/06 11:24:35;;;;;;;4.43;3.45;;;20.10;69.70;;;;;;5048666;28;20186;-67
2022/05/06 11:27:19;;;;;;;4.18;3.40;;;20.30;69.70;;;;;;5050177;28;20532;-67
2022/05/06 11:29:56;;;;;;;2.60;2.00;;;20.60;68.60;;;;;;5050911;28;20021;-66
2022/05/06 11:32:29;;;;;;;1.30;1.00;;;20.80;68.10;;;;;;5051512;28;20039;-67
2022/05/06 11:34:57;;;;;;;2.38;1.90;;;20.90;67.30;;;;;;5049387;28;20099;-66
2022/05/06 11:37:26;;;;;;;2.72;2.08;;;21.10;66.20;;;;;;5051249;28;20032;-67
2022/05/06 11:39:52;;;;;;;2.40;1.65;;;21.30;65.80;;;;;;5049619;28;20147;-67
2022/05/06 11:42:19;;;;;;;3.60;2.80;;;21.40;65.40;;;;;;5051162;28;20496;-67
2022/05/06 11:47:42;;;;;;;2.35;1.75;;;21.80;63.50;;;;;;5051054;28;20032;-67
2022/05/06 11:50:08;;;;;;;3.20;2.05;;;22.00;63.00;;;;;;5050832;28;20017;-67
2022/05/06 11:52:34;;;;;;;3.65;3.13;;;22.20;62.70;;;;;;5050970;28;20017;-67
2022/05/06 11:55:01;;;;;;;3.65;3.10;;;22.40;61.90;;;;;;5050701;28;20370;-67
2022/05/06 11:57:27;;;;;;;3.33;2.88;;;22.60;61.40;;;;;;5048417;28;20087;-67
2022/05/06 11:59:53;;;;;;;3.55;3.15;;;22.70;61.30;;;;;;5048083;28;20298;-67
2022/05/06 12:02:18;;;;;;;3.65;3.35;;;22.80;61.10;;;;;;5048046;28;20062;-67
2022/05/06 12:04:44;;;;;;;3.95;3.10;;;23.10;60.30;;;;;;5048046;28;20484;-67
2022/05/06 12:07:10;;;;;;;4.75;3.00;;;23.20;59.70;;;;;;5048438;28;20496;-67
2022/05/06 12:09:43;;;;;;;3.38;3.03;;;23.40;58.90;;;;;;5046036;28;20393;-67
2022/05/06 12:12:10;;;;;;;2.90;2.60;;;23.60;58.80;;;;;;5048495;28;20036;-67
2022/05/06 12:14:36;;;;;;;3.25;2.60;;;23.80;58.60;;;;;;5048359;28;20064;-67
2022/05/06 12:17:03;;;;;;;5.22;3.90;;;23.90;57.80;;;;;;5048911;28;20017;-67
2022/05/06 12:19:39;;;;;;;4.72;3.70;;;24.00;57.10;;;;;;5057609;28;20049;-67
2022/05/06 12:22:10;;;;;;;3.40;3.03;;;24.10;56.40;;;;;;5049129;28;20025;-67
2022/05/06 12:24:46;;;;;;;3.20;2.72;;;24.30;55.90;;;;;;5048572;28;20021;-67
2022/05/06 12:27:12;;;;;;;3.95;2.83;;;24.40;55.50;;;;;;5049516;28;20032;-67
2022/05/06 12:29:39;;;;;;;3.10;2.70;;;24.60;55.30;;;;;;5050038;28;20029;-67
2022/05/06 12:32:06;;;;;;;5.13;3.40;;;24.70;55.40;;;;;;5047245;28;20067;-67
2022/05/06 12:34:33;;;;;;;3.80;3.47;;;24.90;54.90;;;;;;5049737;28;20025;-67
2022/05/06 12:37:10;;;;;;;4.32;3.67;;;25.10;54.50;;;;;;5050118;28;20436;-67
2022/05/06 12:39:40;;;;;;;5.20;4.35;;;25.30;53.50;;;;;;5049627;28;20107;-67
2022/05/06 12:42:17;;;;;;;4.78;3.72;;;25.40;52.90;;;;;;5049483;28;20442;-67
2022/05/06 12:44:43;;;;;;;4.82;4.07;;;25.60;52.50;;;;;;5047969;28;20021;-67
2022/05/06 12:50:11;;;;;;;4.30;3.90;;;25.80;52.40;;;;;;5052089;28;20407;-67
2022/05/06 12:52:37;;;;;;;4.85;3.55;;;25.90;51.30;;;;;;5055139;28;20435;-67
2022/05/06 12:55:04;;;;;;;4.40;3.17;;;26.00;50.80;;;;;;5069185;28;20086;-67
2022/05/06 12:57:29;;;;;;;3.72;3.17;;;26.10;50.80;;;;;;5053739;28;20033;-67
2022/05/06 12:59:55;;;;;;;4.25;3.05;;;26.20;50.10;;;;;;5054012;28;20102;-67
2022/05/06 13:02:21;;;;;;;6.35;4.63;;;26.30;49.30;;;;;;5054579;28;20550;-67
2022/05/06 13:04:47;;;;;;;4.93;3.40;;;26.40;48.60;;;;;;5053967;28;20028;-67
2022/05/06 13:07:13;;;;;;;4.40;3.28;;;26.50;48.40;;;;;;5053570;28;20036;-67
2022/05/06 13:09:39;;;;;;;4.15;2.95;;;26.70;47.80;;;;;;5054590;28;20057;-67
2022/05/06 13:12:04;;;;;;;3.83;2.50;;;26.80;47.60;;;;;;5052221;28;20523;-67
2022/05/06 13:14:30;;;;;;;6.05;3.92;;;26.90;47.20;;;;;;5055315;28;20029;-67
2022/05/06 13:16:55;;;;;;;5.55;3.35;;;27.00;46.10;;;;;;5055136;28;20068;-67
2022/05/06 13:19:21;;;;;;;5.00;3.58;;;27.00;46.20;;;;;;5054420;28;20073;-67